Time;durP1;ratioP1;P1;durP2;ratioP2;P2;SDS_P1;SDS_P2;PMS_P1;PMS_P2;Temp;Humidity;BMP_temperature;BMP_pressure;BME280_temperature;BME280_humidity;BME280_pressure;Samples;Min_cycle;Max_cycle;Signal;HPM_P1;HPM_P2
2023/05/09 00:00:16;;;;;;;11.63;10.53;;;15.10;99.90;;;;;;5113325;28;20628;-62
2023/05/09 00:02:44;;;;;;;11.63;10.43;;;15.20;99.90;;;;;;5113253;28;20200;-62
2023/05/09 00:05:11;;;;;;;13.40;10.33;;;15.30;99.90;;;;;;5113395;28;20258;-62
2023/05/09 00:07:39;;;;;;;12.37;11.10;;;15.40;99.90;;;;;;5113204;28;20306;-63
2023/05/09 00:10:07;;;;;;;12.53;11.23;;;15.40;99.90;;;;;;5113571;28;20204;-63
2023/05/09 00:12:34;;;;;;;14.03;11.53;;;15.40;99.90;;;;;;5113358;28;20524;-62
2023/05/09 00:15:01;;;;;;;13.87;12.47;;;15.40;99.90;;;;;;5113050;28;20311;-62
2023/05/09 00:17:27;;;;;;;16.00;11.87;;;15.40;99.90;;;;;;5112575;28;20228;-62
2023/05/09 00:19:55;;;;;;;14.67;11.87;;;15.40;99.90;;;;;;5113325;28;20207;-62
2023/05/09 00:22:21;;;;;;;13.23;11.83;;;15.30;99.90;;;;;;5112994;28;20310;-62
2023/05/09 00:24:50;;;;;;;13.40;12.00;;;15.30;99.90;;;;;;5112794;28;20219;-62
2023/05/09 00:27:16;;;;;;;15.03;12.50;;;15.20;99.90;;;;;;5112586;28;20219;-62
2023/05/09 00:29:43;;;;;;;14.40;12.03;;;15.00;99.90;;;;;;5112670;28;20245;-62
2023/05/09 00:32:11;;;;;;;14.50;13.00;;;14.90;99.90;;;;;;5112715;28;20203;-62
2023/05/09 00:34:38;;;;;;;14.03;12.63;;;14.70;99.90;;;;;;5112906;28;20200;-63
2023/05/09 00:37:05;;;;;;;14.30;12.80;;;14.60;99.90;;;;;;5112404;28;20224;-62
2023/05/09 00:39:32;;;;;;;13.80;12.23;;;14.60;99.90;;;;;;5112647;28;20206;-62
2023/05/09 00:42:00;;;;;;;13.70;12.27;;;14.60;99.90;;;;;;5111671;28;20613;-62
2023/05/09 00:44:27;;;;;;;14.03;12.63;;;14.60;99.90;;;;;;5112316;28;20219;-62
2023/05/09 00:46:54;;;;;;;13.27;11.87;;;14.50;99.90;;;;;;5112206;28;20231;-62
2023/05/09 00:49:20;;;;;;;15.33;13.13;;;14.50;99.90;;;;;;5112400;28;20203;-62
2023/05/09 00:51:47;;;;;;;15.23;12.87;;;14.50;99.90;;;;;;5112530;28;20203;-62
2023/05/09 00:54:14;;;;;;;13.87;12.57;;;14.50;99.90;;;;;;5112451;28;20716;-62
2023/05/09 00:56:41;;;;;;;14.50;12.90;;;14.40;99.90;;;;;;5112580;28;20226;-62
2023/05/09 00:59:09;;;;;;;16.03;13.20;;;14.40;99.90;;;;;;5112888;28;20206;-62
2023/05/09 01:01:36;;;;;;;14.13;12.50;;;14.40;99.90;;;;;;5112807;28;20823;-62
2023/05/09 01:04:03;;;;;;;15.13;13.57;;;14.40;99.90;;;;;;5112873;28;20227;-62
2023/05/09 01:06:38;;;;;;;15.73;13.33;;;14.40;99.90;;;;;;5112567;28;20230;-62
2023/05/09 01:09:14;;;;;;;17.33;14.33;;;14.30;99.90;;;;;;5112415;28;20293;-62
2023/05/09 01:11:48;;;;;;;16.30;14.03;;;14.40;99.90;;;;;;5112164;28;20232;-62
2023/05/09 01:14:41;;;;;;;15.33;13.73;;;14.40;99.90;;;;;;5112348;28;20256;-62
2023/05/09 01:17:15;;;;;;;14.93;13.33;;;14.40;99.90;;;;;;5111710;28;20729;-62
2023/05/09 01:19:58;;;;;;;16.17;13.93;;;14.40;99.90;;;;;;5112083;28;20207;-62
2023/05/09 01:22:29;;;;;;;15.00;13.47;;;14.30;99.90;;;;;;5112205;28;20215;-62
2023/05/09 01:25:19;;;;;;;15.60;13.80;;;14.30;99.90;;;;;;5112181;28;20227;-62
2023/05/09 01:27:57;;;;;;;16.37;13.57;;;14.10;99.90;;;;;;5111700;28;20678;-62
2023/05/09 01:30:26;;;;;;;15.30;13.77;;;14.00;99.90;;;;;;5111902;28;20207;-62
2023/05/09 01:32:57;;;;;;;16.47;13.33;;;14.10;99.90;;;;;;5112284;28;20203;-62
2023/05/09 01:35:26;;;;;;;15.93;14.30;;;14.10;99.90;;;;;;5112246;28;20576;-62
2023/05/09 01:37:55;;;;;;;15.57;14.00;;;14.20;99.90;;;;;;5111709;28;20219;-62
2023/05/09 01:40:25;;;;;;;15.90;13.50;;;14.20;99.90;;;;;;5112299;28;20215;-62
2023/05/09 01:42:55;;;;;;;15.67;14.07;;;14.20;99.90;;;;;;5111914;28;20235;-62
2023/05/09 01:45:25;;;;;;;17.97;15.00;;;14.20;99.90;;;;;;5111995;28;20280;-62
2023/05/09 01:47:54;;;;;;;17.53;15.23;;;14.30;99.90;;;;;;5128530;22;20228;-58
2023/05/09 01:50:22;;;;;;;16.30;14.07;;;14.30;99.90;;;;;;5108871;28;20195;-57
2023/05/09 01:52:53;;;;;;;18.33;14.50;;;14.20;99.90;;;;;;5113262;28;20215;-57
2023/05/09 01:55:24;;;;;;;16.97;13.97;;;14.20;99.90;;;;;;5115994;28;20211;-57
2023/05/09 01:57:52;;;;;;;15.73;14.13;;;14.20;99.90;;;;;;5115794;28;20314;-57
2023/05/09 02:00:19;;;;;;;16.20;13.73;;;14.20;99.90;;;;;;5115870;28;20709;-57
2023/05/09 02:02:48;;;;;;;15.37;13.53;;;14.10;99.90;;;;;;5116244;28;20621;-58
2023/05/09 02:05:16;;;;;;;15.70;14.00;;;14.10;99.90;;;;;;5116131;28;20223;-58
2023/05/09 02:07:43;;;;;;;16.30;14.20;;;14.10;99.90;;;;;;5115891;28;20231;-59
2023/05/09 02:10:11;;;;;;;15.03;13.50;;;14.00;99.90;;;;;;5115993;28;20670;-57
2023/05/09 02:12:38;;;;;;;14.90;13.33;;;14.00;99.90;;;;;;5116322;28;20257;-57
2023/05/09 02:15:06;;;;;;;14.73;13.20;;;13.80;99.90;;;;;;5116023;28;20195;-57
2023/05/09 02:17:33;;;;;;;14.63;13.13;;;13.70;99.90;;;;;;5115524;28;20280;-57
2023/05/09 02:20:01;;;;;;;17.40;14.57;;;13.70;99.90;;;;;;5115984;28;20232;-57
2023/05/09 02:22:28;;;;;;;18.77;13.43;;;13.70;99.90;;;;;;5115535;28;20203;-57
2023/05/09 02:24:55;;;;;;;18.47;13.47;;;13.70;99.90;;;;;;5115920;28;20223;-57
2023/05/09 02:27:22;;;;;;;15.17;13.57;;;13.60;99.90;;;;;;5115391;28;20223;-58
2023/05/09 02:29:54;;;;;;;15.07;13.07;;;13.60;99.90;;;;;;5115898;28;20260;-57
2023/05/09 02:32:25;;;;;;;14.57;13.00;;;13.60;99.90;;;;;;5115673;28;20199;-58
2023/05/09 02:34:53;;;;;;;14.77;13.17;;;13.60;99.90;;;;;;5115754;28;20286;-58
2023/05/09 02:37:23;;;;;;;15.80;13.03;;;13.60;99.90;;;;;;5115437;28;20231;-58
2023/05/09 02:39:50;;;;;;;15.77;13.83;;;13.50;99.90;;;;;;5115826;28;20208;-57
2023/05/09 02:42:21;;;;;;;15.03;13.27;;;13.50;99.90;;;;;;5115444;28;20232;-58
2023/05/09 02:44:47;;;;;;;15.33;13.73;;;13.50;99.90;;;;;;5115446;28;20690;-58
2023/05/09 02:47:14;;;;;;;14.40;12.90;;;13.60;99.90;;;;;;5115028;28;20242;-57
2023/05/09 02:49:41;;;;;;;16.43;13.73;;;13.70;99.90;;;;;;5115249;28;20200;-59
2023/05/09 02:52:08;;;;;;;15.93;13.03;;;13.70;99.90;;;;;;5115607;28;20208;-58
2023/05/09 02:54:36;;;;;;;16.63;14.27;;;13.80;99.90;;;;;;5115927;28;20583;-58
2023/05/09 02:57:03;;;;;;;18.73;13.53;;;13.90;99.90;;;;;;5115360;28;20223;-58
2023/05/09 02:59:30;;;;;;;16.27;14.57;;;14.00;99.90;;;;;;5115409;28;20697;-58
2023/05/09 03:01:57;;;;;;;15.33;13.83;;;14.00;99.90;;;;;;5115319;28;20204;-58
2023/05/09 03:04:25;;;;;;;14.57;13.07;;;14.00;99.90;;;;;;5114129;28;20703;-57
2023/05/09 03:06:51;;;;;;;16.90;13.20;;;13.90;99.90;;;;;;5114889;28;20251;-59
2023/05/09 03:09:18;;;;;;;16.30;13.40;;;13.90;99.90;;;;;;5114988;28;20203;-57
2023/05/09 03:11:46;;;;;;;15.80;13.17;;;13.90;99.90;;;;;;5114747;28;20235;-58
2023/05/09 03:14:14;;;;;;;16.90;13.57;;;13.80;99.90;;;;;;5115122;28;20203;-57
2023/05/09 03:16:40;;;;;;;14.80;13.30;;;13.70;99.90;;;;;;5114198;28;20227;-57
2023/05/09 03:19:07;;;;;;;17.20;13.03;;;13.80;99.90;;;;;;5114841;28;20293;-57
2023/05/09 03:21:34;;;;;;;15.53;13.07;;;13.80;99.90;;;;;;5114903;28;20207;-57
2023/05/09 03:24:01;;;;;;;15.27;13.33;;;13.80;99.90;;;;;;5114725;28;20223;-57
2023/05/09 03:26:27;;;;;;;16.57;13.50;;;13.70;99.90;;;;;;5114572;28;20245;-57
2023/05/09 03:28:55;;;;;;;15.57;13.80;;;13.70;99.90;;;;;;5114560;28;20200;-58
2023/05/09 03:31:22;;;;;;;14.90;12.83;;;13.70;99.90;;;;;;5114565;28;20207;-58
2023/05/09 03:33:49;;;;;;;15.53;13.87;;;13.60;99.90;;;;;;5114914;28;20199;-58
2023/05/09 03:36:16;;;;;;;16.10;13.77;;;13.70;99.90;;;;;;5114190;28;20223;-58
2023/05/09 03:38:43;;;;;;;15.50;12.90;;;13.70;99.90;;;;;;5114424;28;20212;-57
2023/05/09 03:41:10;;;;;;;14.07;12.50;;;13.70;99.90;;;;;;5114496;28;20579;-58
2023/05/09 03:43:36;;;;;;;15.80;12.77;;;13.70;99.90;;;;;;5114099;28;20204;-58
2023/05/09 03:46:05;;;;;;;14.47;12.90;;;13.60;99.90;;;;;;5113609;28;20599;-58
2023/05/09 03:48:31;;;;;;;13.93;12.40;;;13.50;99.90;;;;;;5114821;28;20263;-58
2023/05/09 03:50:58;;;;;;;15.50;13.73;;;13.40;99.90;;;;;;5114354;28;20207;-57
2023/05/09 03:53:25;;;;;;;16.33;13.57;;;13.30;99.90;;;;;;5114444;28;20211;-57
2023/05/09 03:55:52;;;;;;;15.70;14.00;;;13.30;99.90;;;;;;5114377;28;20196;-57
2023/05/09 03:58:19;;;;;;;19.57;14.63;;;13.30;99.90;;;;;;5113968;28;20577;-57
2023/05/09 04:00:46;;;;;;;15.73;14.03;;;13.30;99.90;;;;;;5114110;28;20211;-57
2023/05/09 04:03:14;;;;;;;18.90;15.00;;;13.40;99.90;;;;;;5113799;28;20306;-57
2023/05/09 04:05:41;;;;;;;18.93;14.80;;;13.40;99.90;;;;;;5113646;28;20223;-57
2023/05/09 04:08:08;;;;;;;15.83;14.13;;;13.50;99.90;;;;;;5113795;28;20230;-58
2023/05/09 04:10:34;;;;;;;18.13;15.13;;;13.60;99.90;;;;;;5114094;28;20212;-58
2023/05/09 04:13:01;;;;;;;18.73;14.90;;;13.60;99.90;;;;;;5113380;28;20241;-57
2023/05/09 04:15:28;;;;;;;18.50;16.57;;;13.70;99.90;;;;;;5113694;28;20576;-59
2023/05/09 04:17:55;;;;;;;17.73;15.27;;;13.90;99.90;;;;;;5113565;28;20223;-58
2023/05/09 04:20:23;;;;;;;16.10;14.37;;;13.90;99.90;;;;;;5113564;28;20209;-58
2023/05/09 04:22:49;;;;;;;16.80;15.00;;;13.90;99.90;;;;;;5113352;28;20219;-61
2023/05/09 04:25:16;;;;;;;21.53;14.30;;;14.00;99.90;;;;;;5113531;28;20261;-56
2023/05/09 04:27:43;;;;;;;18.10;14.43;;;14.00;99.90;;;;;;5112878;28;20279;-56
2023/05/09 04:30:11;;;;;;;16.03;14.33;;;14.00;99.90;;;;;;5113506;28;20207;-56
2023/05/09 04:32:38;;;;;;;19.27;14.67;;;14.10;99.90;;;;;;5113156;28;20318;-58
2023/05/09 04:35:07;;;;;;;15.40;13.80;;;14.10;99.90;;;;;;5113065;28;20287;-56
2023/05/09 04:37:35;;;;;;;16.73;14.90;;;14.20;99.90;;;;;;5112630;28;20259;-56
2023/05/09 04:40:01;;;;;;;15.83;13.70;;;14.40;99.90;;;;;;5112824;28;20207;-56
2023/05/09 04:42:28;;;;;;;16.87;15.00;;;14.50;99.90;;;;;;5112954;28;20671;-56
2023/05/09 04:44:55;;;;;;;19.50;15.53;;;14.80;99.90;;;;;;5112978;28;20580;-56
2023/05/09 04:47:22;;;;;;;17.77;15.83;;;15.00;99.90;;;;;;5112901;28;20231;-56
2023/05/09 04:49:48;;;;;;;19.47;14.87;;;15.10;99.90;;;;;;5113012;28;20203;-56
2023/05/09 04:52:15;;;;;;;21.10;15.53;;;15.20;99.90;;;;;;5112931;28;20207;-56
2023/05/09 04:54:43;;;;;;;18.10;14.50;;;15.20;99.90;;;;;;5112442;28;20345;-56
2023/05/09 04:57:10;;;;;;;19.93;14.57;;;15.30;99.90;;;;;;5112496;28;20272;-56
2023/05/09 04:59:37;;;;;;;17.37;15.00;;;15.40;99.90;;;;;;5112796;28;20230;-56
2023/05/09 05:02:03;;;;;;;17.37;15.03;;;15.50;99.90;;;;;;5112739;28;20199;-56
2023/05/09 05:04:30;;;;;;;16.37;14.33;;;15.60;99.90;;;;;;5112828;28;20714;-56
2023/05/09 05:06:57;;;;;;;17.07;15.33;;;15.70;99.90;;;;;;5112512;28;20280;-58
2023/05/09 05:09:23;;;;;;;18.60;15.70;;;15.80;99.90;;;;;;5112606;28;20556;-56
2023/05/09 05:11:52;;;;;;;16.38;13.85;;;16.00;99.90;;;;;;5112627;28;20219;-56
2023/05/09 05:14:18;;;;;;;17.52;15.18;;;16.20;99.90;;;;;;5112925;28;20199;-56
2023/05/09 05:16:45;;;;;;;16.95;15.15;;;16.40;99.90;;;;;;5112480;28;20729;-56
2023/05/09 05:19:12;;;;;;;19.67;16.07;;;16.60;99.90;;;;;;5112639;28;20579;-57
2023/05/09 05:21:38;;;;;;;17.45;15.65;;;16.70;99.90;;;;;;5112662;28;20210;-57
2023/05/09 05:24:05;;;;;;;18.40;14.93;;;16.80;99.90;;;;;;5112755;28;20207;-56
2023/05/09 05:26:32;;;;;;;17.42;15.60;;;16.90;99.90;;;;;;5112585;28;20231;-57
2023/05/09 05:29:00;;;;;;;16.95;15.15;;;16.90;99.90;;;;;;5115710;28;20670;-57
2023/05/09 05:31:27;;;;;;;17.70;15.88;;;16.90;99.90;;;;;;5117249;28;20204;-57
2023/05/09 05:33:53;;;;;;;19.13;16.95;;;16.80;99.90;;;;;;5116814;28;20213;-57
2023/05/09 05:36:20;;;;;;;19.45;14.88;;;16.80;99.90;;;;;;5116315;28;20234;-56
2023/05/09 05:38:47;;;;;;;18.35;14.88;;;16.90;99.90;;;;;;5116676;28;20291;-56
2023/05/09 05:41:14;;;;;;;18.25;16.35;;;17.10;99.90;;;;;;5116370;28;20204;-56
2023/05/09 05:43:41;;;;;;;18.17;15.52;;;17.30;99.90;;;;;;5116661;28;20203;-57
2023/05/09 05:46:09;;;;;;;20.50;16.23;;;17.50;99.90;;;;;;5116533;28;20265;-57
2023/05/09 05:48:36;;;;;;;17.27;15.45;;;17.70;99.90;;;;;;5116913;28;20214;-58
2023/05/09 05:51:02;;;;;;;19.83;15.23;;;17.90;99.90;;;;;;5116802;28;20204;-56
2023/05/09 05:53:29;;;;;;;17.60;15.70;;;18.00;99.90;;;;;;5116334;28;20204;-57
2023/05/09 05:55:56;;;;;;;18.00;16.10;;;18.10;99.90;;;;;;5116613;28;20204;-56
2023/05/09 05:58:23;;;;;;;17.73;15.82;;;18.20;99.90;;;;;;5116360;28;20674;-56
2023/05/09 06:00:51;;;;;;;19.52;16.00;;;18.20;99.90;;;;;;5116379;28;20230;-56
2023/05/09 06:03:19;;;;;;;18.67;16.10;;;18.30;99.90;;;;;;5115898;28;20204;-56
2023/05/09 06:05:47;;;;;;;18.20;15.50;;;18.40;99.90;;;;;;5116010;28;20223;-56
2023/05/09 06:08:13;;;;;;;16.55;14.88;;;19.00;99.90;;;;;;5116130;28;20216;-56
2023/05/09 06:10:40;;;;;;;16.42;14.73;;;19.60;99.90;;;;;;5116222;28;20257;-56
2023/05/09 06:13:07;;;;;;;19.67;15.25;;;19.90;99.90;;;;;;5115964;28;20697;-56
2023/05/09 06:15:34;;;;;;;17.33;14.80;;;19.90;99.90;;;;;;5115977;28;20199;-56
2023/05/09 06:18:01;;;;;;;16.98;14.48;;;20.90;99.90;;;;;;5115198;28;20227;-56
2023/05/09 06:20:29;;;;;;;18.08;14.45;;;22.20;99.90;;;;;;5115473;28;20573;-56
2023/05/09 06:22:55;;;;;;;16.08;14.48;;;22.50;99.90;;;;;;5115819;28;20203;-56
2023/05/09 06:25:22;;;;;;;17.13;14.48;;;22.40;99.90;;;;;;5115726;28;20250;-57
2023/05/09 06:27:49;;;;;;;19.75;14.02;;;22.60;99.90;;;;;;5115608;28;20226;-56
2023/05/09 06:30:16;;;;;;;15.40;13.80;;;22.60;99.90;;;;;;5115719;28;20203;-56
2023/05/09 06:32:42;;;;;;;15.77;14.18;;;22.50;99.90;;;;;;5115743;28;20207;-56
2023/05/09 06:35:09;;;;;;;15.63;13.73;;;22.20;99.90;;;;;;5115888;28;20204;-57
2023/05/09 06:37:37;;;;;;;17.67;14.38;;;22.10;99.90;;;;;;5115537;28;20219;-57
2023/05/09 06:40:05;;;;;;;15.85;14.15;;;22.10;99.90;;;;;;5115449;28;20647;-57
2023/05/09 06:42:32;;;;;;;19.50;14.98;;;21.80;99.90;;;;;;5115812;28;20207;-56
2023/05/09 06:44:59;;;;;;;17.13;14.07;;;21.40;99.90;;;;;;5115228;28;20689;-57
2023/05/09 06:47:26;;;;;;;17.00;15.20;;;21.20;99.90;;;;;;5115214;28;20265;-57
2023/05/09 06:49:52;;;;;;;16.98;13.93;;;21.00;99.90;;;;;;5116171;28;20219;-57
2023/05/09 06:52:20;;;;;;;19.20;14.63;;;21.00;99.90;;;;;;5115945;28;20209;-57
2023/05/09 06:54:48;;;;;;;16.58;14.88;;;21.00;99.90;;;;;;5115546;28;20204;-57
2023/05/09 06:57:15;;;;;;;18.23;14.75;;;21.10;99.90;;;;;;5115026;28;20237;-57
2023/05/09 06:59:43;;;;;;;15.75;14.05;;;21.50;99.90;;;;;;5115051;28;20207;-57
2023/05/09 07:02:10;;;;;;;16.83;14.27;;;21.90;99.90;;;;;;5115022;28;20245;-57
2023/05/09 07:04:37;;;;;;;18.02;14.25;;;22.40;99.90;;;;;;5115240;28;20204;-59
2023/05/09 07:07:03;;;;;;;14.65;13.15;;;22.90;99.90;;;;;;5115908;28;20232;-62
2023/05/09 07:09:30;;;;;;;15.88;13.65;;;23.10;99.90;;;;;;5116479;28;20203;-62
2023/05/09 07:12:00;;;;;;;14.32;12.82;;;23.20;99.90;;;;;;5116079;28;20203;-63
2023/05/09 07:14:27;;;;;;;18.98;13.48;;;23.10;99.90;;;;;;5116469;28;20358;-63
2023/05/09 07:16:53;;;;;;;16.25;13.27;;;23.10;99.90;;;;;;5116537;28;20227;-62
2023/05/09 07:19:20;;;;;;;14.85;13.02;;;23.30;99.90;;;;;;5116336;28;20199;-63
2023/05/09 07:21:47;;;;;;;14.77;13.38;;;23.50;99.90;;;;;;5116137;28;20299;-63
2023/05/09 07:24:14;;;;;;;14.48;12.98;;;23.30;99.90;;;;;;5116526;28;20207;-63
2023/05/09 07:26:40;;;;;;;14.73;13.27;;;23.10;99.90;;;;;;5116096;28;20231;-63
2023/05/09 07:29:08;;;;;;;14.35;12.85;;;22.80;99.90;;;;;;5116422;28;20207;-63
2023/05/09 07:31:35;;;;;;;14.52;13.05;;;22.40;99.90;;;;;;5115933;28;20234;-63
2023/05/09 07:34:02;;;;;;;14.55;12.82;;;22.20;99.90;;;;;;5115444;28;20207;-62
2023/05/09 07:36:29;;;;;;;14.82;12.98;;;22.20;99.90;;;;;;5115260;28;20227;-63
2023/05/09 07:38:55;;;;;;;15.20;13.55;;;22.30;99.90;;;;;;5115414;28;20655;-62
2023/05/09 07:41:22;;;;;;;15.85;13.25;;;22.40;99.90;;;;;;5115354;28;20207;-62
2023/05/09 07:43:49;;;;;;;18.73;14.25;;;22.30;99.90;;;;;;5115712;28;20207;-63
2023/05/09 07:46:17;;;;;;;15.50;13.30;;;22.30;99.90;;;;;;5129954;22;20687;-63
2023/05/09 07:48:44;;;;;;;14.02;12.07;;;22.60;99.90;;;;;;5124060;27;20215;-62
2023/05/09 07:51:10;;;;;;;13.23;11.85;;;23.90;99.90;;;;;;5117748;27;20199;-64
2023/05/09 07:53:37;;;;;;;13.02;11.48;;;26.00;99.90;;;;;;5113353;28;20260;-63
2023/05/09 07:56:05;;;;;;;14.55;11.88;;;27.10;99.90;;;;;;5113692;28;20547;-63
2023/05/09 07:58:32;;;;;;;12.82;11.52;;;27.30;99.90;;;;;;5092728;28;20226;-63
2023/05/09 08:00:59;;;;;;;12.75;11.25;;;27.50;99.10;;;;;;5092735;28;20709;-65
2023/05/09 08:03:27;;;;;;;13.48;11.02;;;27.80;98.50;;;;;;5093030;28;20212;-63
2023/05/09 08:05:55;;;;;;;12.15;10.95;;;28.50;96.70;;;;;;5092875;28;20735;-63
2023/05/09 08:08:22;;;;;;;13.18;11.23;;;28.80;94.50;;;;;;5092507;28;20228;-64
2023/05/09 08:10:49;;;;;;;11.38;10.25;;;28.90;93.70;;;;;;5092802;28;20277;-64
2023/05/09 08:13:17;;;;;;;11.50;10.32;;;28.90;92.40;;;;;;5092346;28;20690;-63
2023/05/09 08:15:44;;;;;;;12.35;10.15;;;29.50;91.40;;;;;;5092883;28;20208;-63
2023/05/09 08:18:11;;;;;;;10.93;9.75;;;30.10;90.60;;;;;;5092341;28;20219;-64
2023/05/09 08:20:39;;;;;;;10.75;9.77;;;29.70;90.10;;;;;;5092841;28;20303;-64
2023/05/09 08:23:05;;;;;;;13.85;10.38;;;28.90;91.00;;;;;;5092315;28;20302;-62
2023/05/09 08:25:32;;;;;;;13.77;10.20;;;28.10;91.70;;;;;;5092310;28;20200;-62
2023/05/09 08:27:59;;;;;;;11.90;10.70;;;27.50;92.10;;;;;;5092065;28;20304;-64
2023/05/09 08:30:28;;;;;;;11.50;9.82;;;27.00;92.80;;;;;;5092366;28;20647;-62
2023/05/09 08:32:54;;;;;;;9.88;8.93;;;26.70;93.40;;;;;;5092315;28;20690;-64
2023/05/09 08:35:21;;;;;;;10.88;9.80;;;26.50;93.70;;;;;;5091894;28;20213;-63
2023/05/09 08:37:49;;;;;;;9.90;9.00;;;26.40;93.60;;;;;;5091856;28;20234;-62
2023/05/09 08:40:17;;;;;;;9.52;8.50;;;26.40;93.30;;;;;;5092569;28;20709;-62
2023/05/09 08:42:44;;;;;;;9.25;8.35;;;26.10;92.90;;;;;;5092311;28;20208;-66
2023/05/09 08:45:13;;;;;;;9.20;7.85;;;25.60;93.60;;;;;;5092308;28;20243;-62
2023/05/09 08:47:41;;;;;;;9.57;7.93;;;25.20;94.00;;;;;;5091974;28;20230;-62
2023/05/09 08:50:10;;;;;;;9.75;7.95;;;24.50;94.10;;;;;;5092027;28;20726;-62
2023/05/09 08:52:37;;;;;;;9.32;8.40;;;23.80;95.00;;;;;;5092137;28;20208;-62
2023/05/09 08:55:06;;;;;;;8.02;7.22;;;23.40;95.90;;;;;;5092276;28;20208;-63
2023/05/09 08:57:34;;;;;;;7.45;6.75;;;23.30;96.10;;;;;;5092088;28;20265;-62
2023/05/09 09:00:00;;;;;;;7.90;7.10;;;23.40;96.80;;;;;;5092306;28;20235;-63
2023/05/09 09:02:27;;;;;;;7.00;6.22;;;23.30;96.10;;;;;;5091052;28;20200;-62
2023/05/09 09:04:54;;;;;;;5.82;5.13;;;23.30;95.50;;;;;;5091964;28;20662;-62
2023/05/09 09:07:22;;;;;;;5.97;5.38;;;23.10;95.20;;;;;;5091948;28;20228;-64
2023/05/09 09:09:49;;;;;;;6.88;5.70;;;22.80;95.90;;;;;;5091871;28;20232;-65
2023/05/09 09:12:18;;;;;;;5.95;5.40;;;22.70;95.80;;;;;;5091587;28;20208;-64
2023/05/09 09:14:49;;;;;;;7.63;6.28;;;22.60;95.70;;;;;;5091586;28;20208;-65
2023/05/09 09:17:18;;;;;;;7.78;5.22;;;22.50;96.30;;;;;;5091561;28;20247;-65
2023/05/09 09:19:48;;;;;;;8.55;6.20;;;22.60;96.40;;;;;;5091616;28;20211;-65
2023/05/09 09:22:18;;;;;;;5.18;4.68;;;22.70;96.60;;;;;;5091642;28;20208;-65
2023/05/09 09:24:45;;;;;;;5.72;5.13;;;23.00;96.40;;;;;;5091695;28;20626;-65
2023/05/09 09:27:12;;;;;;;5.60;5.10;;;23.20;95.80;;;;;;5092046;28;20289;-67
2023/05/09 09:29:40;;;;;;;5.55;5.05;;;23.30;96.00;;;;;;5091784;28;20667;-66
2023/05/09 09:32:07;;;;;;;6.45;4.93;;;23.50;96.40;;;;;;5091948;28;20204;-65
2023/05/09 09:34:34;;;;;;;5.68;4.70;;;23.90;95.80;;;;;;5091875;28;20208;-65
2023/05/09 09:37:01;;;;;;;5.55;5.03;;;24.10;95.50;;;;;;5091173;28;20706;-66
2023/05/09 09:39:27;;;;;;;6.95;6.25;;;24.30;95.30;;;;;;5091865;28;20740;-65
2023/05/09 09:41:54;;;;;;;6.40;5.72;;;24.50;95.40;;;;;;5091531;28;20204;-65
2023/05/09 09:44:22;;;;;;;7.32;5.80;;;24.80;94.70;;;;;;5091362;28;20445;-65
2023/05/09 09:46:51;;;;;;;6.78;6.07;;;24.90;95.10;;;;;;5091297;28;20292;-66
2023/05/09 09:49:20;;;;;;;7.30;6.60;;;25.00;94.90;;;;;;5091393;28;20694;-65
2023/05/09 09:51:51;;;;;;;6.35;5.75;;;25.20;94.80;;;;;;5091645;28;20735;-67
2023/05/09 09:54:18;;;;;;;5.95;5.38;;;25.20;94.70;;;;;;5091516;28;20296;-66
2023/05/09 09:56:46;;;;;;;7.50;6.10;;;25.20;94.30;;;;;;5090986;28;20224;-65
2023/05/09 09:59:14;;;;;;;6.57;5.90;;;25.00;94.80;;;;;;5092642;28;20605;-63
2023/05/09 10:01:57;;;;;;;7.88;6.03;;;25.20;94.80;;;;;;5094993;28;20231;-66
2023/05/09 10:04:25;;;;;;;6.85;6.13;;;25.60;93.80;;;;;;5095856;28;20215;-65
2023/05/09 10:06:53;;;;;;;6.57;5.97;;;25.70;93.40;;;;;;5094297;28;20236;-65
2023/05/09 10:09:21;;;;;;;6.43;5.82;;;25.50;93.60;;;;;;5092888;28;20262;-65
2023/05/09 10:11:50;;;;;;;5.10;4.32;;;25.70;93.40;;;;;;5091270;28;20315;-66
2023/05/09 10:14:18;;;;;;;5.70;3.78;;;26.00;93.30;;;;;;5092646;28;20232;-65
2023/05/09 10:16:47;;;;;;;4.43;3.97;;;26.30;92.80;;;;;;5094554;28;20224;-66
2023/05/09 10:19:18;;;;;;;7.43;4.20;;;26.50;92.20;;;;;;5094885;28;20207;-66
2023/05/09 10:21:50;;;;;;;4.35;3.72;;;26.50;92.00;;;;;;5095370;28;20235;-66
2023/05/09 10:24:21;;;;;;;4.55;3.67;;;26.40;91.80;;;;;;5095141;28;20291;-66
2023/05/09 10:26:51;;;;;;;4.30;3.90;;;26.50;91.50;;;;;;5094676;28;20235;-66
2023/05/09 10:29:21;;;;;;;7.95;4.00;;;26.40;92.00;;;;;;5094642;28;20208;-64
2023/05/09 10:31:50;;;;;;;3.80;3.40;;;26.20;91.70;;;;;;5094638;28;20293;-67
2023/05/09 10:34:19;;;;;;;5.78;4.20;;;26.00;92.20;;;;;;5094346;28;20211;-66
2023/05/09 10:36:47;;;;;;;6.43;3.53;;;25.80;92.70;;;;;;5094470;28;20246;-67
2023/05/09 10:39:14;;;;;;;5.32;4.22;;;25.80;92.50;;;;;;5095313;28;20200;-65
2023/05/09 10:41:41;;;;;;;5.30;3.97;;;25.70;92.10;;;;;;5094436;28;20204;-65
2023/05/09 10:44:08;;;;;;;5.50;4.78;;;25.50;92.70;;;;;;5094587;28;20204;-66
2023/05/09 10:46:35;;;;;;;4.40;3.70;;;25.30;92.90;;;;;;5094717;28;20309;-67
2023/05/09 10:49:02;;;;;;;4.82;3.63;;;25.30;92.90;;;;;;5094412;28;20242;-64
2023/05/09 10:51:31;;;;;;;4.53;3.70;;;25.20;93.30;;;;;;5094305;28;20204;-66
2023/05/09 10:53:58;;;;;;;5.20;3.90;;;24.90;93.80;;;;;;5094341;28;20201;-65
2023/05/09 10:56:26;;;;;;;4.00;3.60;;;24.90;93.90;;;;;;5094058;28;20204;-65
2023/05/09 10:58:53;;;;;;;5.13;4.63;;;25.20;93.90;;;;;;5093967;28;20204;-67
2023/05/09 11:01:33;;;;;;;6.75;3.90;;;25.40;93.50;;;;;;5093925;28;20295;-65
2023/05/09 11:04:01;;;;;;;4.85;4.35;;;25.70;92.90;;;;;;5094279;28;20231;-65
2023/05/09 11:06:45;;;;;;;4.07;3.67;;;26.00;92.70;;;;;;5093855;28;20756;-65
2023/05/09 11:09:34;;;;;;;6.43;4.43;;;26.10;93.20;;;;;;5093708;28;20207;-65
2023/05/09 11:12:08;;;;;;;6.03;4.20;;;26.10;92.80;;;;;;5093585;28;20291;-66
2023/05/09 11:14:40;;;;;;;5.10;4.60;;;26.00;93.20;;;;;;5093748;28;20683;-67
2023/05/09 11:17:08;;;;;;;6.35;4.82;;;26.20;93.30;;;;;;5093364;28;20273;-64
2023/05/09 11:19:54;;;;;;;5.00;4.60;;;26.10;93.10;;;;;;5105082;28;20668;-65
2023/05/09 11:22:23;;;;;;;7.35;4.60;;;26.10;93.50;;;;;;5111882;28;20203;-67
2023/05/09 11:24:51;;;;;;;8.27;4.75;;;26.20;93.20;;;;;;5112435;28;20714;-64
2023/05/09 11:27:20;;;;;;;6.35;4.65;;;26.40;93.10;;;;;;5111675;28;20251;-63
2023/05/09 11:29:51;;;;;;;5.72;4.75;;;26.60;92.40;;;;;;5113107;28;20639;-67
2023/05/09 11:32:19;;;;;;;5.35;4.03;;;26.70;92.40;;;;;;5113409;28;20203;-63
2023/05/09 11:34:46;;;;;;;5.47;4.97;;;26.90;92.10;;;;;;5112820;28;20629;-66
2023/05/09 11:37:16;;;;;;;5.80;5.15;;;27.00;91.70;;;;;;5112915;28;20593;-65
2023/05/09 11:39:58;;;;;;;6.88;5.03;;;27.10;91.40;;;;;;5112748;28;20679;-64
2023/05/09 11:42:27;;;;;;;5.70;4.50;;;27.20;91.40;;;;;;5112976;28;20203;-66
2023/05/09 11:44:54;;;;;;;6.20;5.28;;;27.00;91.40;;;;;;5113069;28;20592;-64
2023/05/09 11:47:21;;;;;;;6.15;5.55;;;26.90;91.60;;;;;;5112855;28;20227;-64
2023/05/09 11:49:48;;;;;;;6.53;4.72;;;27.00;91.70;;;;;;5113240;28;20204;-62
2023/05/09 11:52:15;;;;;;;5.20;4.68;;;27.10;91.10;;;;;;5113296;28;20208;-64
2023/05/09 11:54:42;;;;;;;5.40;4.82;;;27.00;91.40;;;;;;5112740;28;20207;-62
2023/05/09 11:57:15;;;;;;;5.05;4.60;;;26.70;91.90;;;;;;5112481;28;20228;-64
2023/05/09 11:59:43;;;;;;;5.13;4.35;;;26.40;91.90;;;;;;5112616;28;20214;-63
2023/05/09 12:02:10;;;;;;;6.00;4.45;;;26.50;92.50;;;;;;5112877;28;20211;-66
2023/05/09 12:04:37;;;;;;;5.13;4.63;;;26.50;92.30;;;;;;5112299;28;20250;-64
2023/05/09 12:07:04;;;;;;;6.18;4.95;;;26.20;92.50;;;;;;5112131;28;20246;-67
2023/05/09 12:09:32;;;;;;;5.88;4.95;;;25.90;93.20;;;;;;5112602;28;20207;-62
2023/05/09 12:11:59;;;;;;;5.63;5.13;;;25.60;93.60;;;;;;5112036;28;20227;-64
2023/05/09 12:14:29;;;;;;;6.80;5.20;;;25.40;94.00;;;;;;5112465;28;20210;-63
2023/05/09 12:16:55;;;;;;;6.65;4.50;;;25.60;93.70;;;;;;5111743;28;20223;-63
2023/05/09 12:19:24;;;;;;;5.80;5.30;;;25.70;93.60;;;;;;5111966;28;20595;-63
2023/05/09 12:21:56;;;;;;;5.50;5.00;;;25.70;93.50;;;;;;5112275;28;20242;-63
2023/05/09 12:24:23;;;;;;;7.18;4.97;;;25.90;93.80;;;;;;5112700;28;20246;-62
2023/05/09 12:26:51;;;;;;;5.13;4.53;;;25.90;94.20;;;;;;5111577;28;20227;-63
2023/05/09 12:29:18;;;;;;;5.03;3.90;;;25.90;93.90;;;;;;5111784;28;20303;-63
2023/05/09 12:31:47;;;;;;;5.85;4.50;;;26.10;93.50;;;;;;5112142;28;20207;-68
2023/05/09 12:34:14;;;;;;;4.82;4.13;;;26.20;93.30;;;;;;5112943;28;20200;-62
2023/05/09 12:36:49;;;;;;;4.60;4.20;;;26.10;93.50;;;;;;5112405;28;20224;-61